Time;durP1;ratioP1;P1;durP2;ratioP2;P2;SDS_P1;SDS_P2;PMS_P1;PMS_P2;Temp;Humidity;BMP_temperature;BMP_pressure;BME280_temperature;BME280_humidity;BME280_pressure;Samples;Min_cycle;Max_cycle;Signal;HPM_P1;HPM_P2
2021/01/28 00:00:07;;;;;;;;;;;23.70;54.80;;;;;;6240179;23;19922;-70
2021/01/28 00:02:33;;;;;;;;;;;23.70;54.90;;;;;;6240302;23;20342;-70
2021/01/28 00:04:59;;;;;;;;;;;23.70;54.90;;;;;;6239311;23;19907;-67
2021/01/28 00:07:25;;;;;;;;;;;23.70;54.80;;;;;;6239840;23;19903;-71
2021/01/28 00:09:52;;;;;;;;;;;23.70;54.80;;;;;;6239318;23;20320;-67
2021/01/28 00:12:19;;;;;;;;;;;23.70;54.90;;;;;;6240059;23;19907;-69
2021/01/28 00:14:45;;;;;;;;;;;23.70;54.80;;;;;;6239757;23;19904;-69
2021/01/28 00:17:11;;;;;;;;;;;23.60;54.90;;;;;;6239928;23;19904;-69
2021/01/28 00:19:37;;;;;;;;;;;23.60;55.00;;;;;;6242071;23;20603;-68
2021/01/28 00:22:04;;;;;;;;;;;23.60;55.10;;;;;;6241686;23;20227;-68
2021/01/28 00:24:30;;;;;;;;;;;23.60;55.20;;;;;;6242455;23;19942;-68
2021/01/28 00:26:57;;;;;;;;;;;23.60;55.20;;;;;;6241516;23;19899;-70
2021/01/28 00:29:23;;;;;;;;;;;23.60;55.30;;;;;;6242610;23;20235;-72
2021/01/28 00:31:49;;;;;;;;;;;23.50;55.50;;;;;;6241629;23;19908;-70
2021/01/28 00:34:15;;;;;;;;;;;23.50;55.50;;;;;;6242561;23;19903;-70
2021/01/28 00:36:41;;;;;;;;;;;23.50;55.60;;;;;;6242424;23;20324;-70
2021/01/28 00:39:08;;;;;;;;;;;23.50;55.60;;;;;;6242065;23;20319;-68
2021/01/28 00:41:34;;;;;;;;;;;23.60;55.80;;;;;;6242085;23;19974;-68
2021/01/28 00:44:01;;;;;;;;;;;23.60;55.80;;;;;;6241102;23;20382;-68
2021/01/28 00:46:27;;;;;;;;;;;23.50;55.80;;;;;;6241863;23;20183;-68
2021/01/28 00:48:53;;;;;;;;;;;23.50;55.80;;;;;;6240619;23;19966;-71
2021/01/28 00:51:19;;;;;;;;;;;23.50;55.90;;;;;;6242273;23;19950;-71
2021/01/28 00:53:45;;;;;;;;;;;23.50;56.00;;;;;;6241111;23;19903;-67
2021/01/28 00:56:11;;;;;;;;;;;23.40;56.00;;;;;;6241830;23;19910;-68
2021/01/28 00:58:37;;;;;;;;;;;23.40;56.10;;;;;;6242155;23;20274;-68
2021/01/28 01:01:03;;;;;;;;;;;23.40;56.10;;;;;;6240881;23;19912;-68
2021/01/28 01:03:30;;;;;;;;;;;23.40;56.10;;;;;;6242214;23;19979;-70
2021/01/28 01:05:56;;;;;;;;;;;23.40;56.20;;;;;;6240807;23;19900;-70
2021/01/28 01:08:24;;;;;;;;;;;23.50;56.20;;;;;;6241965;22;19903;-69
2021/01/28 01:10:55;;;;;;;;;;;23.40;56.20;;;;;;6241434;23;20002;-68
2021/01/28 01:13:22;;;;;;;;;;;23.40;56.30;;;;;;6241703;23;20379;-69
2021/01/28 01:15:49;;;;;;;;;;;23.40;56.30;;;;;;6241491;23;20224;-70
2021/01/28 01:18:16;;;;;;;;;;;23.40;56.40;;;;;;6240755;23;19907;-70
2021/01/28 01:20:43;;;;;;;;;;;23.40;56.40;;;;;;6241832;23;19903;-68
2021/01/28 01:23:09;;;;;;;;;;;23.30;56.30;;;;;;6240983;23;19899;-68
2021/01/28 01:25:35;;;;;;;;;;;23.30;56.40;;;;;;6241800;23;19954;-67
2021/01/28 01:28:01;;;;;;;;;;;23.30;56.40;;;;;;6240287;23;20372;-67
2021/01/28 01:30:27;;;;;;;;;;;23.30;56.50;;;;;;6241710;23;19906;-67
2021/01/28 01:32:53;;;;;;;;;;;23.30;56.50;;;;;;6241160;23;19950;-69
2021/01/28 01:35:22;;;;;;;;;;;23.30;56.60;;;;;;6241364;23;19910;-68
2021/01/28 01:37:48;;;;;;;;;;;23.30;56.50;;;;;;6241642;23;20444;-68
2021/01/28 01:40:17;;;;;;;;;;;23.30;56.70;;;;;;6240826;23;19945;-67
2021/01/28 01:42:49;;;;;;;;;;;23.20;56.70;;;;;;6241526;23;19907;-70
2021/01/28 01:45:17;;;;;;;;;;;23.20;56.80;;;;;;6240900;23;19907;-68
2021/01/28 01:47:47;;;;;;;;;;;23.30;56.90;;;;;;6242100;23;19946;-72
2021/01/28 01:50:36;;;;;;;;;;;23.30;57.00;;;;;;6240965;23;19903;-68
2021/01/28 01:53:03;;;;;;;;;;;23.20;57.10;;;;;;6197345;23;20426;-70
2021/01/28 01:55:30;;;;;;;;;;;23.20;57.10;;;;;;6241765;23;19900;-68
2021/01/28 01:57:58;;;;;;;;;;;23.20;57.10;;;;;;6240429;23;19957;-68
2021/01/28 02:00:25;;;;;;;;;;;23.20;57.20;;;;;;6241251;23;19911;-68
2021/01/28 02:02:54;;;;;;;;;;;23.20;57.20;;;;;;6240873;23;19903;-70
2021/01/28 02:05:29;;;;;;;;;;;23.20;57.90;;;;;;6241359;23;19906;-67
2021/01/28 02:07:56;;;;;;;;;;;23.10;57.20;;;;;;6241459;23;19903;-68
2021/01/28 02:10:22;;;;;;;;;;;23.20;57.40;;;;;;6240291;23;19899;-68
2021/01/28 02:12:48;;;;;;;;;;;23.10;57.30;;;;;;6241675;23;20002;-68
2021/01/28 02:15:14;;;;;;;;;;;23.10;57.30;;;;;;6240021;23;20323;-68
2021/01/28 02:17:42;;;;;;;;;;;23.10;57.30;;;;;;6241721;23;20334;-68
2021/01/28 02:20:10;;;;;;;;;;;23.10;57.40;;;;;;6240584;23;19904;-68
2021/01/28 02:22:46;;;;;;;;;;;23.10;57.30;;;;;;6240782;23;19984;-69
2021/01/28 02:25:12;;;;;;;;;;;23.10;57.40;;;;;;6241196;23;19903;-70
2021/01/28 02:27:41;;;;;;;;;;;23.10;57.40;;;;;;6239691;23;19950;-67
2021/01/28 02:30:07;;;;;;;;;;;23.10;57.40;;;;;;6241774;23;19906;-69
2021/01/28 02:32:33;;;;;;;;;;;23.10;57.30;;;;;;6238714;22;19911;-71
2021/01/28 02:34:59;;;;;;;;;;;23.10;57.40;;;;;;6241560;23;19899;-69
2021/01/28 02:37:25;;;;;;;;;;;23.00;57.30;;;;;;6240126;23;19949;-71
2021/01/28 02:39:52;;;;;;;;;;;23.00;57.50;;;;;;6240787;23;19903;-68
2021/01/28 02:42:26;;;;;;;;;;;23.00;57.50;;;;;;6240509;23;19976;-68
2021/01/28 02:44:52;;;;;;;;;;;23.00;57.50;;;;;;6239936;23;19923;-68
2021/01/28 02:47:18;;;;;;;;;;;23.00;57.70;;;;;;6241429;23;19904;-68
2021/01/28 02:49:44;;;;;;;;;;;23.00;57.70;;;;;;6240276;23;19903;-68
2021/01/28 02:52:10;;;;;;;;;;;23.00;57.80;;;;;;6241313;23;20239;-67
2021/01/28 02:54:59;;;;;;;;;;;23.00;57.80;;;;;;6240246;23;20231;-69
2021/01/28 02:57:45;;;;;;;;;;;23.00;57.80;;;;;;6238425;23;20682;-68
2021/01/28 03:00:31;;;;;;;;;;;22.90;57.90;;;;;;6240954;23;19914;-68
2021/01/28 03:03:17;;;;;;;;;;;22.90;57.90;;;;;;6240142;23;19899;-68
2021/01/28 03:06:04;;;;;;;;;;;22.90;58.00;;;;;;6241548;23;19904;-70
2021/01/28 03:08:50;;;;;;;;;;;22.90;58.00;;;;;;6241222;22;19900;-69
2021/01/28 03:11:36;;;;;;;;;;;22.80;58.10;;;;;;6240191;23;19994;-68
2021/01/28 03:14:22;;;;;;;;;;;22.80;58.10;;;;;;6240616;23;19900;-67
2021/01/28 03:17:13;;;;;;;;;;;22.90;58.20;;;;;;6240863;22;19925;-68
2021/01/28 03:19:59;;;;;;;;;;;22.80;58.80;;;;;;6239353;22;19978;-70
2021/01/28 03:22:45;;;;;;;;;;;22.80;58.30;;;;;;6240416;23;19899;-69
2021/01/28 03:25:31;;;;;;;;;;;22.80;58.20;;;;;;6240258;23;19900;-68
2021/01/28 03:28:17;;;;;;;;;;;22.80;58.10;;;;;;6239781;23;19906;-71
2021/01/28 03:31:03;;;;;;;;;;;22.80;58.00;;;;;;6240559;23;19941;-67
2021/01/28 03:33:49;;;;;;;;;;;22.80;57.90;;;;;;6237342;23;19900;-67
2021/01/28 03:36:35;;;;;;;;;;;22.80;57.80;;;;;;6240175;23;19903;-67
2021/01/28 03:39:20;;;;;;;;;;;22.80;57.70;;;;;;6240366;23;19899;-68
2021/01/28 03:42:06;;;;;;;;;;;22.70;57.60;;;;;;6239318;22;19910;-67
2021/01/28 03:44:52;;;;;;;;;;;22.70;57.60;;;;;;6240211;23;19899;-67
2021/01/28 03:47:38;;;;;;;;;;;22.70;57.60;;;;;;6240879;23;19945;-66
2021/01/28 03:50:24;;;;;;;;;;;22.70;57.40;;;;;;6240086;23;20236;-70
2021/01/28 03:53:10;;;;;;;;;;;22.70;57.40;;;;;;6239583;23;19946;-75
2021/01/28 03:55:56;;;;;;;;;;;22.70;57.40;;;;;;6239432;23;19899;-73
2021/01/28 03:58:42;;;;;;;;;;;22.70;57.30;;;;;;6239960;23;20311;-72
2021/01/28 04:01:28;;;;;;;;;;;22.70;57.20;;;;;;6240104;22;19915;-68
2021/01/28 04:04:14;;;;;;;;;;;22.70;57.00;;;;;;6239070;23;19910;-71
2021/01/28 04:07:00;;;;;;;;;;;22.60;56.90;;;;;;6240315;23;20274;-67
2021/01/28 04:09:46;;;;;;;;;;;22.50;56.60;;;;;;6240738;23;19906;-71
2021/01/28 04:12:32;;;;;;;;;;;21.70;58.70;;;;;;6239411;23;19911;-68
2021/01/28 04:15:18;;;;;;;;;;;21.40;59.80;;;;;;6240268;23;19904;-67
2021/01/28 04:18:04;;;;;;;;;;;21.30;60.20;;;;;;6239772;23;19922;-67
2021/01/28 04:20:50;;;;;;;;;;;21.10;60.80;;;;;;6238486;23;19899;-68
2021/01/28 04:23:36;;;;;;;;;;;21.00;61.00;;;;;;6240661;23;19907;-67
2021/01/28 04:26:22;;;;;;;;;;;21.00;61.40;;;;;;6239613;23;19907;-67
2021/01/28 04:29:09;;;;;;;;;;;20.90;61.30;;;;;;6238488;23;19990;-67
2021/01/28 04:31:55;;;;;;;;;;;21.00;61.40;;;;;;6239181;22;19927;-68
2021/01/28 04:34:42;;;;;;;;;;;21.30;60.60;;;;;;6238963;22;19903;-67
2021/01/28 04:37:28;;;;;;;;;;;21.70;59.20;;;;;;6238339;23;20255;-68
2021/01/28 04:40:14;;;;;;;;;;;22.00;58.30;;;;;;6238767;23;19949;-67
2021/01/28 04:42:41;;;;;;;;;;;22.10;57.90;;;;;;6237553;23;19900;-69
2021/01/28 04:45:28;;;;;;;;;;;22.20;57.80;;;;;;6239387;23;19904;-67
2021/01/28 04:48:14;;;;;;;;;;;22.20;57.70;;;;;;6238876;23;19903;-68
2021/01/28 04:51:00;;;;;;;;;;;22.20;57.50;;;;;;6237623;23;19904;-67
2021/01/28 04:53:52;;;;;;;;;;;22.30;57.50;;;;;;6239503;23;19919;-66
2021/01/28 04:56:42;;;;;;;;;;;22.30;57.30;;;;;;6238798;23;19900;-67
2021/01/28 04:59:39;;;;;;;;;;;22.30;57.10;;;;;;6238047;23;19907;-67
2021/01/28 05:02:06;;;;;;;;;;;22.30;57.00;;;;;;6191367;23;19923;-67
2021/01/28 05:04:40;;;;;;;;;;;22.30;56.90;;;;;;6209425;23;19927;-68
2021/01/28 05:07:10;;;;;;;;;;;22.30;56.90;;;;;;6211062;23;19900;-67
2021/01/28 05:09:37;;;;;;;;;;;22.30;56.70;;;;;;6211041;23;20223;-68
2021/01/28 05:12:23;;;;;;;;;;;22.30;56.70;;;;;;6210179;23;20340;-67
2021/01/28 05:15:09;;;;;;;;;;;22.30;56.70;;;;;;6211473;23;19907;-68
2021/01/28 05:17:55;;;;;;;;;;;22.30;56.70;;;;;;6210753;23;20027;-70
2021/01/28 05:20:41;;;;;;;;;;;22.30;56.70;;;;;;6210507;23;20343;-70
2021/01/28 05:23:26;;;;;;;;;;;22.40;56.70;;;;;;6210027;23;19904;-69
2021/01/28 05:26:12;;;;;;;;;;;22.40;56.60;;;;;;6208900;23;20205;-68
2021/01/28 05:28:58;;;;;;;;;;;22.30;56.60;;;;;;6210723;23;19910;-71
2021/01/28 05:31:47;;;;;;;;;;;22.30;56.60;;;;;;6210615;23;19915;-68
2021/01/28 05:34:27;;;;;;;;;;;22.40;56.60;;;;;;6207280;23;19911;-67
2021/01/28 05:37:01;;;;;;;;;;;22.40;56.60;;;;;;6211469;23;19900;-69
2021/01/28 05:39:29;;;;;;;;;;;22.40;56.70;;;;;;6210025;23;20295;-68
2021/01/28 05:42:13;;;;;;;;;;;22.40;56.70;;;;;;6210395;23;20289;-71
2021/01/28 05:44:40;;;;;;;;;;;22.40;56.60;;;;;;6210999;23;19947;-68
2021/01/28 05:47:11;;;;;;;;;;;22.40;56.60;;;;;;6210014;23;19903;-67
2021/01/28 05:49:41;;;;;;;;;;;22.40;56.60;;;;;;6210767;23;19975;-69
2021/01/28 05:52:12;;;;;;;;;;;22.50;56.60;;;;;;6209196;23;19916;-70
2021/01/28 05:54:38;;;;;;;;;;;22.50;56.60;;;;;;6212177;23;20371;-69
2021/01/28 05:57:10;;;;;;;;;;;22.50;56.60;;;;;;6212453;23;19935;-70
2021/01/28 05:59:36;;;;;;;;;;;22.50;56.50;;;;;;6213523;23;19904;-70
2021/01/28 06:02:03;;;;;;;;;;;22.50;56.60;;;;;;6243414;23;19906;-68
2021/01/28 06:04:32;;;;;;;;;;;22.60;56.50;;;;;;6241454;23;20484;-70
2021/01/28 06:07:07;;;;;;;;;;;22.60;56.50;;;;;;6242971;23;19903;-69
2021/01/28 06:09:52;;;;;;;;;;;22.60;56.50;;;;;;6241071;23;19946;-68
2021/01/28 06:12:18;;;;;;;;;;;22.60;56.40;;;;;;6242016;23;19907;-70
2021/01/28 06:14:54;;;;;;;;;;;22.60;56.40;;;;;;6242145;23;19903;-69
2021/01/28 06:17:22;;;;;;;;;;;22.70;56.40;;;;;;6241495;23;19899;-68
2021/01/28 06:20:07;;;;;;;;;;;22.70;56.30;;;;;;6241725;23;19903;-71
2021/01/28 06:22:52;;;;;;;;;;;22.70;56.30;;;;;;6240465;23;19923;-68
2021/01/28 06:25:33;;;;;;;;;;;22.80;57.00;;;;;;6241905;23;20475;-69
2021/01/28 06:28:10;;;;;;;;;;;22.80;56.40;;;;;;6242174;23;19900;-69
2021/01/28 06:30:55;;;;;;;;;;;22.80;56.30;;;;;;6241013;23;20332;-70
2021/01/28 06:33:21;;;;;;;;;;;22.80;56.20;;;;;;6242421;23;19912;-69
2021/01/28 06:36:25;;;;;;;;;;;22.90;56.20;;;;;;6240499;23;20308;-67
2021/01/28 06:39:09;;;;;;;;;;;22.90;56.20;;;;;;6148062;23;19908;-70
2021/01/28 06:41:40;;;;;;;;;;;22.90;56.20;;;;;;6149070;23;19907;-72
2021/01/28 06:44:24;;;;;;;;;;;22.90;56.10;;;;;;6206542;23;20243;-69
2021/01/28 06:46:54;;;;;;;;;;;23.00;56.10;;;;;;6242087;23;19899;-70
2021/01/28 06:49:24;;;;;;;;;;;23.00;56.00;;;;;;6242773;23;19904;-70
2021/01/28 06:51:59;;;;;;;;;;;23.00;55.90;;;;;;6240805;23;19908;-71
2021/01/28 06:54:35;;;;;;;;;;;23.00;55.80;;;;;;6242279;23;19914;-69
2021/01/28 06:57:04;;;;;;;;;;;23.00;55.80;;;;;;6241251;23;20278;-70
2021/01/28 06:59:45;;;;;;;;;;;23.10;55.80;;;;;;6241725;23;19904;-69
2021/01/28 07:02:30;;;;;;;;;;;23.10;55.70;;;;;;6242587;23;19960;-68
2021/01/28 07:05:14;;;;;;;;;;;23.10;55.60;;;;;;6240824;23;19899;-71
2021/01/28 07:07:54;;;;;;;;;;;23.10;55.50;;;;;;6241436;23;19957;-70
2021/01/28 07:10:23;;;;;;;;;;;23.20;55.50;;;;;;6241204;23;19899;-70
2021/01/28 07:12:50;;;;;;;;;;;23.20;55.30;;;;;;6241168;23;19907;-71
2021/01/28 07:15:17;;;;;;;;;;;23.20;55.10;;;;;;6242388;23;19906;-68
2021/01/28 07:17:54;;;;;;;;;;;23.20;55.50;;;;;;6240989;23;20319;-71
2021/01/28 07:20:26;;;;;;;;;;;23.20;54.70;;;;;;6241740;23;19900;-67
2021/01/28 07:22:52;;;;;;;;;;;23.30;54.60;;;;;;6238647;23;19904;-68
2021/01/28 07:25:32;;;;;;;;;;;23.30;54.40;;;;;;6242330;23;19946;-68
2021/01/28 07:28:14;;;;;;;;;;;23.30;54.40;;;;;;6241673;23;19931;-69
2021/01/28 07:30:47;;;;;;;;;;;23.40;54.20;;;;;;6240613;23;19910;-67
2021/01/28 07:33:36;;;;;;;;;;;23.40;54.10;;;;;;6242285;23;19911;-68
2021/01/28 07:36:22;;;;;;;;;;;23.40;53.90;;;;;;6228570;23;19899;-68
2021/01/28 07:38:54;;;;;;;;;;;23.50;53.80;;;;;;6241422;23;19979;-68
2021/01/28 07:41:24;;;;;;;;;;;23.50;53.90;;;;;;6242173;23;19904;-68
2021/01/28 07:43:52;;;;;;;;;;;23.50;53.80;;;;;;6240892;22;19903;-65
2021/01/28 07:46:18;;;;;;;;;;;23.50;53.70;;;;;;6242388;23;19903;-68
2021/01/28 07:48:45;;;;;;;;;;;23.60;53.70;;;;;;6241047;23;19907;-68
2021/01/28 07:51:30;;;;;;;;;;;23.60;53.70;;;;;;6242495;23;19908;-68
2021/01/28 07:53:56;;;;;;;;;;;23.60;53.60;;;;;;6241381;23;19899;-68
2021/01/28 07:56:42;;;;;;;;;;;23.70;53.30;;;;;;6240894;23;19899;-68
2021/01/28 07:59:11;;;;;;;;;;;23.70;53.50;;;;;;6241710;23;19927;-66
2021/01/28 08:01:40;;;;;;;;;;;23.70;53.30;;;;;;6240505;23;19947;-67
2021/01/28 08:04:12;;;;;;;;;;;23.70;53.30;;;;;;6242248;23;19900;-68
2021/01/28 08:06:39;;;;;;;;;;;23.70;52.90;;;;;;6241248;23;19998;-67
2021/01/28 08:09:06;;;;;;;;;;;23.80;53.10;;;;;;6240745;23;19904;-68
2021/01/28 08:11:33;;;;;;;;;;;23.80;52.00;;;;;;6242345;23;19904;-66
2021/01/28 08:13:59;;;;;;;;;;;23.80;52.10;;;;;;6240913;23;19899;-65
2021/01/28 08:16:25;;;;;;;;;;;23.90;52.50;;;;;;6242501;23;19931;-66
2021/01/28 08:19:10;;;;;;;;;;;23.90;52.20;;;;;;6240367;23;19903;-66
2021/01/28 08:21:37;;;;;;;;;;;23.90;52.20;;;;;;6241848;23;19911;-69
2021/01/28 08:24:10;;;;;;;;;;;23.90;52.20;;;;;;6241012;23;19934;-68
2021/01/28 08:26:42;;;;;;;;;;;24.00;52.60;;;;;;6240936;23;19934;-66
2021/01/28 08:29:12;;;;;;;;;;;24.00;52.20;;;;;;6241492;23;19906;-67
2021/01/28 08:31:43;;;;;;;;;;;24.00;51.80;;;;;;6240424;23;20308;-66
2021/01/28 08:34:13;;;;;;;;;;;24.00;51.70;;;;;;6241734;23;19900;-68
2021/01/28 08:36:43;;;;;;;;;;;24.10;52.10;;;;;;6240720;23;19904;-67
2021/01/28 08:39:11;;;;;;;;;;;24.10;52.20;;;;;;6241928;23;19923;-66
2021/01/28 08:41:38;;;;;;;;;;;24.10;51.80;;;;;;6244032;23;19907;-67
2021/01/28 08:44:10;;;;;;;;;;;24.20;51.60;;;;;;6243167;23;19946;-67
2021/01/28 08:46:37;;;;;;;;;;;24.20;51.80;;;;;;6244425;23;19962;-65
2021/01/28 08:49:09;;;;;;;;;;;24.20;51.30;;;;;;6242471;23;19934;-67
2021/01/28 08:51:40;;;;;;;;;;;24.30;51.20;;;;;;6243696;23;20655;-68
2021/01/28 08:54:15;;;;;;;;;;;24.20;50.40;;;;;;6243453;23;20227;-68
2021/01/28 08:56:41;;;;;;;;;;;24.30;50.40;;;;;;6241430;23;19900;-68
2021/01/28 08:59:10;;;;;;;;;;;24.30;50.80;;;;;;6243327;23;19956;-65
2021/01/28 09:01:42;;;;;;;;;;;24.30;50.90;;;;;;6242500;23;19911;-66
2021/01/28 09:04:18;;;;;;;;;;;24.40;50.50;;;;;;6243669;23;19914;-68
2021/01/28 09:06:47;;;;;;;;;;;24.40;50.70;;;;;;6242884;23;20291;-65
2021/01/28 09:09:22;;;;;;;;;;;24.50;50.60;;;;;;6242754;23;19915;-67
2021/01/28 09:11:49;;;;;;;;;;;24.50;50.50;;;;;;6243476;23;19911;-66
2021/01/28 09:14:17;;;;;;;;;;;24.50;49.90;;;;;;6242107;23;20328;-68
2021/01/28 09:17:03;;;;;;;;;;;24.60;50.30;;;;;;6243569;23;19899;-66
2021/01/28 09:19:30;;;;;;;;;;;24.60;50.00;;;;;;6242080;23;19899;-65
2021/01/28 09:21:58;;;;;;;;;;;24.60;49.40;;;;;;6243920;23;19904;-66
2021/01/28 09:24:31;;;;;;;;;;;24.70;49.60;;;;;;6242844;23;19906;-65
2021/01/28 09:27:17;;;;;;;;;;;24.70;49.60;;;;;;6242742;23;19907;-66
2021/01/28 09:29:44;;;;;;;;;;;24.80;49.60;;;;;;6242857;23;19903;-65
2021/01/28 09:32:19;;;;;;;;;;;24.80;49.70;;;;;;6242570;23;19907;-66
2021/01/28 09:34:46;;;;;;;;;;;24.80;49.60;;;;;;6243572;23;19945;-67
2021/01/28 09:37:17;;;;;;;;;;;24.90;49.10;;;;;;6243009;23;19907;-68
2021/01/28 09:39:45;;;;;;;;;;;24.90;49.00;;;;;;6243036;23;19899;-66
2021/01/28 09:42:22;;;;;;;;;;;24.90;48.80;;;;;;6243273;23;20219;-67
2021/01/28 09:44:49;;;;;;;;;;;25.00;48.80;;;;;;6241783;23;19902;-66
2021/01/28 09:47:18;;;;;;;;;;;25.00;48.40;;;;;;6243603;23;19899;-68
2021/01/28 09:49:47;;;;;;;;;;;25.00;47.50;;;;;;6242014;23;19899;-68
2021/01/28 09:52:33;;;;;;;;;;;25.10;48.20;;;;;;6242629;23;19962;-66
2021/01/28 09:55:05;;;;;;;;;;;25.10;47.90;;;;;;6243369;23;20227;-65
2021/01/28 09:57:31;;;;;;;;;;;25.10;47.80;;;;;;6242353;23;19903;-66
2021/01/28 09:59:57;;;;;;;;;;;25.10;47.60;;;;;;6243345;23;20274;-66
2021/01/28 10:02:35;;;;;;;;;;;25.20;47.50;;;;;;6241630;23;19904;-66
2021/01/28 10:05:02;;;;;;;;;;;25.30;48.00;;;;;;6243769;23;19953;-66
2021/01/28 10:07:28;;;;;;;;;;;25.30;47.50;;;;;;6241577;23;19935;-68
2021/01/28 10:09:54;;;;;;;;;;;25.40;47.70;;;;;;6242863;23;19899;-68
2021/01/28 10:12:40;;;;;;;;;;;25.40;48.60;;;;;;6239680;23;19929;-66
2021/01/28 10:15:26;;;;;;;;;;;25.50;47.80;;;;;;6241220;23;19974;-67
2021/01/28 10:18:12;;;;;;;;;;;25.60;48.30;;;;;;6241611;23;19969;-68
2021/01/28 10:20:40;;;;;;;;;;;25.60;47.60;;;;;;6241141;23;19899;-67
2021/01/28 10:23:07;;;;;;;;;;;25.60;48.00;;;;;;6240250;23;19903;-66
2021/01/28 10:25:33;;;;;;;;;;;25.90;46.20;;;;;;6241451;23;19899;-65
2021/01/28 10:27:59;;;;;;;;;;;26.10;45.70;;;;;;6241001;23;19927;-66
2021/01/28 10:30:26;;;;;;;;;;;26.20;45.40;;;;;;6242244;23;19900;-65
2021/01/28 10:32:52;;;;;;;;;;;26.30;45.60;;;;;;6240825;23;19915;-66
2021/01/28 10:35:21;;;;;;;;;;;26.30;45.80;;;;;;6242525;23;20350;-65
2021/01/28 10:37:47;;;;;;;;;;;26.40;45.10;;;;;;6241944;23;19926;-65
2021/01/28 10:40:14;;;;;;;;;;;26.50;44.10;;;;;;6241660;23;19900;-65
2021/01/28 10:42:42;;;;;;;;;;;26.50;44.30;;;;;;6240741;23;19904;-65
2021/01/28 10:45:12;;;;;;;;;;;26.50;43.80;;;;;;6241134;23;19953;-66
2021/01/28 10:47:39;;;;;;;;;;;26.60;44.00;;;;;;6242562;23;19910;-66
2021/01/28 10:50:06;;;;;;;;;;;26.70;44.40;;;;;;6241437;23;19950;-66
2021/01/28 10:52:32;;;;;;;;;;;26.80;43.80;;;;;;6241693;23;19911;-65
2021/01/28 10:54:58;;;;;;;;;;;26.80;44.00;;;;;;6241565;23;20516;-66
2021/01/28 10:57:24;;;;;;;;;;;26.80;44.20;;;;;;6242044;23;19900;-64
2021/01/28 10:59:50;;;;;;;;;;;26.90;43.60;;;;;;6241533;23;20644;-65
2021/01/28 11:02:16;;;;;;;;;;;26.90;43.30;;;;;;6240219;23;20323;-66
2021/01/28 11:04:42;;;;;;;;;;;27.00;43.10;;;;;;6242105;23;19960;-64
2021/01/28 11:07:08;;;;;;;;;;;27.00;43.00;;;;;;6240999;23;19906;-65
2021/01/28 11:09:35;;;;;;;;;;;27.00;43.80;;;;;;6241834;23;19904;-68
2021/01/28 11:12:01;;;;;;;;;;;26.80;44.80;;;;;;6240483;23;20283;-65
2021/01/28 11:14:27;;;;;;;;;;;26.70;45.30;;;;;;6242318;23;19982;-68
2021/01/28 11:16:53;;;;;;;;;;;26.60;45.60;;;;;;6240718;23;19900;-68
2021/01/28 11:19:19;;;;;;;;;;;26.50;46.00;;;;;;6241379;23;19957;-67
2021/01/28 11:21:45;;;;;;;;;;;26.50;46.30;;;;;;6241699;23;19933;-67
2021/01/28 11:24:12;;;;;;;;;;;26.50;47.30;;;;;;6239798;23;19930;-68
2021/01/28 11:26:38;;;;;;;;;;;26.50;48.10;;;;;;6242515;23;20268;-67
2021/01/28 11:29:06;;;;;;;;;;;26.60;48.70;;;;;;6240751;23;19978;-67
2021/01/28 11:31:33;;;;;;;;;;;26.60;49.00;;;;;;6241435;23;19908;-67
2021/01/28 11:33:59;;;;;;;;;;;26.60;49.30;;;;;;6241188;23;19903;-69
2021/01/28 11:36:25;;;;;;;;;;;26.60;49.00;;;;;;6241758;23;19903;-68
2021/01/28 11:38:51;;;;;;;;;;;26.70;49.00;;;;;;6240869;23;19910;-66
2021/01/28 11:41:18;;;;;;;;;;;26.70;48.90;;;;;;6240685;23;19906;-67
2021/01/28 11:43:44;;;;;;;;;;;26.80;47.90;;;;;;6242313;23;20354;-68
2021/01/28 11:46:10;;;;;;;;;;;26.80;47.60;;;;;;6239727;23;20322;-67
2021/01/28 11:48:36;;;;;;;;;;;26.80;46.60;;;;;;6242635;23;19906;-67
2021/01/28 11:51:02;;;;;;;;;;;26.90;47.10;;;;;;6240624;23;19899;-67
2021/01/28 11:53:28;;;;;;;;;;;26.90;47.20;;;;;;6241874;23;19913;-67
2021/01/28 11:55:55;;;;;;;;;;;27.00;46.90;;;;;;6241393;23;19899;-67
2021/01/28 11:58:22;;;;;;;;;;;27.00;47.00;;;;;;6241841;23;19900;-67
2021/01/28 12:00:48;;;;;;;;;;;27.30;46.70;;;;;;6241807;23;20581;-67
2021/01/28 12:03:15;;;;;;;;;;;27.50;45.80;;;;;;6241382;23;19907;-65
2021/01/28 12:05:41;;;;;;;;;;;27.70;43.90;;;;;;6242191;23;19973;-67
2021/01/28 12:08:07;;;;;;;;;;;27.80;44.90;;;;;;6241271;23;19953;-68
2021/01/28 12:10:33;;;;;;;;;;;27.90;43.80;;;;;;6241807;23;19910;-69
2021/01/28 12:13:00;;;;;;;;;;;27.60;45.10;;;;;;6240675;23;19950;-69
2021/01/28 12:15:27;;;;;;;;;;;27.50;45.40;;;;;;6242735;23;19904;-68
2021/01/28 12:17:53;;;;;;;;;;;27.40;45.50;;;;;;6244466;23;19907;-67
2021/01/28 12:20:23;;;;;;;;;;;27.50;45.70;;;;;;6241804;23;20033;-67
2021/01/28 12:22:49;;;;;;;;;;;27.50;45.40;;;;;;6244012;23;19922;-68
2021/01/28 12:25:15;;;;;;;;;;;27.50;46.00;;;;;;6242772;23;19899;-68
2021/01/28 12:27:41;;;;;;;;;;;27.50;45.50;;;;;;6243706;23;19907;-66
2021/01/28 12:30:08;;;;;;;;;;;27.60;45.00;;;;;;6242283;23;19957;-67
2021/01/28 12:32:54;;;;;;;;;;;27.50;44.60;;;;;;6238574;23;19908;-67
2021/01/28 12:35:40;;;;;;;;;;;27.50;45.00;;;;;;6243805;23;19899;-67
2021/01/28 12:38:26;;;;;;;;;;;27.60;44.60;;;;;;6242866;23;19903;-67
2021/01/28 12:41:12;;;;;;;;;;;27.60;44.20;;;;;;6244199;22;19903;-66
2021/01/28 12:43:58;;;;;;;;;;;27.70;44.30;;;;;;6242856;23;19907;-67
2021/01/28 12:46:44;;;;;;;;;;;27.70;44.20;;;;;;6242008;22;19899;-67
2021/01/28 12:49:30;;;;;;;;;;;27.70;44.10;;;;;;6243691;23;19899;-67
2021/01/28 12:52:16;;;;;;;;;;;27.70;44.10;;;;;;6242252;23;19914;-66
2021/01/28 12:55:02;;;;;;;;;;;27.70;43.70;;;;;;6242859;23;19985;-66
2021/01/28 12:57:48;;;;;;;;;;;27.70;44.50;;;;;;6242832;23;20312;-66
2021/01/28 13:00:16;;;;;;;;;;;27.70;44.30;;;;;;6241947;23;19965;-66
2021/01/28 13:02:42;;;;;;;;;;;27.80;44.30;;;;;;6243685;23;19979;-67
2021/01/28 13:05:09;;;;;;;;;;;27.80;44.50;;;;;;6235328;23;20297;-66
2021/01/28 13:07:35;;;;;;;;;;;27.80;44.20;;;;;;6241867;23;20279;-68
2021/01/28 13:10:01;;;;;;;;;;;27.90;44.70;;;;;;6243503;23;19903;-67
2021/01/28 13:12:27;;;;;;;;;;;27.90;44.20;;;;;;6241971;23;19914;-68
2021/01/28 13:14:53;;;;;;;;;;;27.90;44.40;;;;;;6243292;23;19903;-67
2021/01/28 13:17:21;;;;;;;;;;;27.90;44.10;;;;;;6241495;23;19904;-68
2021/01/28 13:19:48;;;;;;;;;;;27.90;44.30;;;;;;6243452;23;19900;-68
2021/01/28 13:22:14;;;;;;;;;;;27.90;44.20;;;;;;6242212;23;19906;-68
2021/01/28 13:24:40;;;;;;;;;;;27.90;44.00;;;;;;6242688;23;20323;-67
2021/01/28 13:27:06;;;;;;;;;;;27.90;44.20;;;;;;6243225;23;19953;-66
2021/01/28 13:29:33;;;;;;;;;;;27.90;44.30;;;;;;6243231;23;19903;-68
2021/01/28 13:32:19;;;;;;;;;;;27.90;44.20;;;;;;6237973;23;19930;-67
2021/01/28 13:35:05;;;;;;;;;;;27.90;44.30;;;;;;6242016;23;19906;-66
2021/01/28 13:37:51;;;;;;;;;;;27.90;44.40;;;;;;6243075;23;19900;-67
2021/01/28 13:40:37;;;;;;;;;;;27.90;44.10;;;;;;6242728;23;19974;-67
2021/01/28 13:43:23;;;;;;;;;;;27.90;43.90;;;;;;6241577;23;19982;-66
2021/01/28 13:46:06;;;;;;;;;;;27.90;43.90;;;;;;6243315;23;20320;-66
2021/01/28 13:48:32;;;;;;;;;;;27.90;44.10;;;;;;6242567;22;19899;-66
2021/01/28 13:50:58;;;;;;;;;;;27.90;43.70;;;;;;6240099;23;19899;-66
2021/01/28 13:53:24;;;;;;;;;;;27.90;43.80;;;;;;6243092;23;20284;-66
2021/01/28 13:55:50;;;;;;;;;;;27.80;43.90;;;;;;6242461;23;19907;-66
2021/01/28 13:58:16;;;;;;;;;;;27.80;44.20;;;;;;6243117;23;19900;-66
2021/01/28 14:00:42;;;;;;;;;;;27.90;43.90;;;;;;6241690;23;19918;-66
2021/01/28 14:03:08;;;;;;;;;;;27.90;44.00;;;;;;6243760;23;19900;-66
2021/01/28 14:05:34;;;;;;;;;;;27.90;43.90;;;;;;6239961;23;20298;-66
2021/01/28 14:08:01;;;;;;;;;;;27.80;43.80;;;;;;6243326;23;19904;-65
2021/01/28 14:10:28;;;;;;;;;;;27.80;44.10;;;;;;6243082;23;20242;-66
2021/01/28 14:12:55;;;;;;;;;;;27.80;44.40;;;;;;6242316;23;19907;-66
2021/01/28 14:15:22;;;;;;;;;;;27.90;44.00;;;;;;6243022;23;19899;-66
2021/01/28 14:17:48;;;;;;;;;;;27.80;44.10;;;;;;6241361;23;20386;-66
2021/01/28 14:20:15;;;;;;;;;;;27.90;43.80;;;;;;6243155;23;19911;-66
2021/01/28 14:23:00;;;;;;;;;;;27.90;43.80;;;;;;6241216;23;19903;-68
2021/01/28 14:25:46;;;;;;;;;;;28.00;43.60;;;;;;6242830;23;19899;-66
2021/01/28 14:28:32;;;;;;;;;;;28.00;43.80;;;;;;6243314;23;19906;-68
2021/01/28 14:31:18;;;;;;;;;;;27.90;44.00;;;;;;6241572;23;19910;-67
2021/01/28 14:34:04;;;;;;;;;;;27.90;44.10;;;;;;6242447;23;19908;-67
2021/01/28 14:36:50;;;;;;;;;;;28.00;43.40;;;;;;6242350;23;19974;-67
2021/01/28 14:39:36;;;;;;;;;;;28.00;43.60;;;;;;6241778;23;19906;-70
2021/01/28 14:42:04;;;;;;;;;;;27.90;43.00;;;;;;6243088;23;19899;-67
2021/01/28 14:44:31;;;;;;;;;;;28.00;43.40;;;;;;6242448;23;19915;-67
2021/01/28 14:46:57;;;;;;;;;;;28.00;43.20;;;;;;6242477;23;19904;-67
2021/01/28 14:49:23;;;;;;;;;;;27.90;43.00;;;;;;6242829;23;19909;-67